createdAt,value
2017-08-26T00:01:40.867Z,3.67
2017-08-26T00:04:08.390Z,3.60
2017-08-26T00:06:35.972Z,3.27
2017-08-26T00:09:03.506Z,3.60
2017-08-26T00:11:31.310Z,3.33
2017-08-26T00:13:58.901Z,2.70
2017-08-26T00:16:26.431Z,2.57
2017-08-26T00:18:53.969Z,3.47
2017-08-26T00:21:21.589Z,3.37
2017-08-26T00:23:49.171Z,3.40
2017-08-26T00:26:16.728Z,3.20
2017-08-26T00:28:44.277Z,2.97
2017-08-26T00:31:11.947Z,2.50
2017-08-26T00:33:39.472Z,3.20
2017-08-26T00:36:06.983Z,3.47
2017-08-26T00:38:34.557Z,3.10
2017-08-26T00:41:02.065Z,2.97
2017-08-26T00:43:29.578Z,3.70
2017-08-26T00:45:57.170Z,2.77
2017-08-26T00:48:24.726Z,3.70
2017-08-26T00:50:52.369Z,3.00
2017-08-26T00:53:19.925Z,3.00
2017-08-26T00:55:47.471Z,3.43
2017-08-26T00:58:15.005Z,3.27
2017-08-26T01:00:42.535Z,3.10
2017-08-26T01:03:10.089Z,3.50
2017-08-26T01:05:37.645Z,3.83
2017-08-26T01:08:05.210Z,3.67
2017-08-26T01:10:32.784Z,3.20
2017-08-26T01:13:00.335Z,3.53
2017-08-26T01:15:27.843Z,2.50
2017-08-26T01:17:55.420Z,3.90
2017-08-26T01:20:23.001Z,3.93
2017-08-26T01:22:50.713Z,3.07
2017-08-26T01:25:18.252Z,3.20
2017-08-26T01:27:45.870Z,3.37
2017-08-26T01:30:13.487Z,3.13
2017-08-26T01:32:41.025Z,3.77
2017-08-26T01:35:08.550Z,2.90
2017-08-26T01:37:36.107Z,3.27
2017-08-26T01:40:03.625Z,3.20
2017-08-26T01:42:31.125Z,3.07
2017-08-26T01:44:58.684Z,2.70
2017-08-26T01:47:26.246Z,3.40
2017-08-26T01:49:53.848Z,2.97
2017-08-26T01:52:21.402Z,3.80
2017-08-26T01:54:49.003Z,3.40
2017-08-26T01:57:16.571Z,3.20
2017-08-26T01:59:44.181Z,3.40
2017-08-26T02:02:11.698Z,3.27
2017-08-26T02:04:39.214Z,3.40
2017-08-26T02:07:06.797Z,3.10
2017-08-26T02:09:34.309Z,2.93
2017-08-26T02:12:01.805Z,3.27
2017-08-26T02:14:29.345Z,3.10
2017-08-26T02:16:56.888Z,2.87
2017-08-26T02:19:24.441Z,3.20
2017-08-26T02:21:52.062Z,3.40
2017-08-26T02:24:19.617Z,3.20
2017-08-26T02:26:47.186Z,3.03
2017-08-26T02:29:14.701Z,4.07
2017-08-26T02:31:42.358Z,2.83
2017-08-26T02:34:09.862Z,3.60
2017-08-26T02:36:37.453Z,3.77
2017-08-26T02:39:04.977Z,3.10
2017-08-26T02:41:32.606Z,3.37
2017-08-26T02:44:00.197Z,3.97
2017-08-26T02:46:27.744Z,3.90
2017-08-26T02:48:55.302Z,3.70
2017-08-26T02:51:22.901Z,4.60
2017-08-26T02:53:50.420Z,5.17
2017-08-26T02:56:17.990Z,4.20
2017-08-26T02:58:45.619Z,3.70
2017-08-26T03:01:13.136Z,3.23
2017-08-26T03:03:40.731Z,4.20
2017-08-26T03:06:08.289Z,3.33
2017-08-26T03:08:35.873Z,4.53
2017-08-26T03:11:03.478Z,4.73
2017-08-26T03:13:31.028Z,4.47
2017-08-26T03:15:58.549Z,4.47
2017-08-26T03:18:26.095Z,4.63
2017-08-26T03:20:53.841Z,4.13
2017-08-26T03:23:21.413Z,4.20
2017-08-26T03:25:49.023Z,4.57
2017-08-26T03:28:16.531Z,4.70
2017-08-26T03:30:44.119Z,4.53
2017-08-26T03:33:11.685Z,4.97
2017-08-26T03:35:39.197Z,4.20
2017-08-26T03:38:06.741Z,3.90
2017-08-26T03:40:34.257Z,3.90
2017-08-26T03:43:01.817Z,3.87
2017-08-26T03:45:29.344Z,4.03
2017-08-26T03:47:56.845Z,4.60
2017-08-26T03:50:24.417Z,3.67
2017-08-26T03:52:52.056Z,3.87
2017-08-26T03:55:19.641Z,4.67
2017-08-26T03:57:47.191Z,4.23
2017-08-26T04:00:14.750Z,3.80
2017-08-26T04:02:42.379Z,4.40
2017-08-26T04:05:09.917Z,4.40
2017-08-26T04:07:37.455Z,4.17
2017-08-26T04:10:05.001Z,3.60
2017-08-26T04:12:32.525Z,4.20
2017-08-26T04:15:00.073Z,3.90
2017-08-26T04:17:27.613Z,4.53
2017-08-26T04:19:55.230Z,4.20
2017-08-26T04:22:22.823Z,3.97
2017-08-26T04:24:50.391Z,4.17
2017-08-26T04:27:17.916Z,4.57
2017-08-26T04:29:45.462Z,3.43
2017-08-26T04:32:13.018Z,4.17
2017-08-26T04:34:40.524Z,3.80
2017-08-26T04:37:08.084Z,5.00
2017-08-26T04:39:35.634Z,4.77
2017-08-26T04:42:03.248Z,4.67
2017-08-26T04:44:30.807Z,4.33
2017-08-26T04:46:58.612Z,3.87
2017-08-26T04:49:26.114Z,4.03
2017-08-26T04:51:53.637Z,3.33
2017-08-26T04:54:21.201Z,4.23
2017-08-26T04:56:48.728Z,4.10
2017-08-26T04:59:16.421Z,4.97
2017-08-26T05:01:44.024Z,4.10
2017-08-26T05:04:11.533Z,4.33
2017-08-26T05:06:39.119Z,4.20
2017-08-26T05:09:06.628Z,4.17
2017-08-26T05:11:34.188Z,4.20
2017-08-26T05:14:01.709Z,4.33
2017-08-26T05:16:29.207Z,3.93
2017-08-26T05:18:56.808Z,3.10
2017-08-26T05:21:24.341Z,4.10
2017-08-26T05:23:51.934Z,3.73
2017-08-26T05:26:19.601Z,4.53
2017-08-26T05:28:47.111Z,3.80
2017-08-26T05:31:14.684Z,4.10
2017-08-26T05:33:42.201Z,4.77
2017-08-26T05:36:09.709Z,4.20
2017-08-26T05:38:37.253Z,4.10
2017-08-26T05:41:04.772Z,4.23
2017-08-26T05:43:32.278Z,3.97
2017-08-26T05:45:59.853Z,4.23
2017-08-26T05:48:27.356Z,3.97
2017-08-26T05:50:54.874Z,4.37
2017-08-26T05:53:22.471Z,3.63
2017-08-26T05:55:49.973Z,3.97
2017-08-26T05:58:17.496Z,4.50
2017-08-26T06:00:45.091Z,4.63
2017-08-26T06:03:12.602Z,4.47
2017-08-26T06:05:40.149Z,3.83
2017-08-26T06:08:07.656Z,4.07
2017-08-26T06:13:09.030Z,4.90
2017-08-26T06:15:36.532Z,4.20
2017-08-26T06:18:04.098Z,3.83
2017-08-26T06:20:31.628Z,3.93
2017-08-26T06:22:59.217Z,3.73
2017-08-26T06:25:26.741Z,3.50
2017-08-26T06:27:54.287Z,3.97
2017-08-26T06:30:21.832Z,3.97
2017-08-26T06:32:49.375Z,3.67
2017-08-26T06:35:16.960Z,3.67
2017-08-26T06:37:44.470Z,3.67
2017-08-26T06:40:12.008Z,3.50
2017-08-26T06:42:39.580Z,3.60
2017-08-26T06:45:07.113Z,3.70
2017-08-26T06:47:34.636Z,3.80
2017-08-26T06:50:02.283Z,4.43
2017-08-26T06:52:29.869Z,3.63
2017-08-26T06:54:57.449Z,4.43
2017-08-26T06:57:25.020Z,3.70
2017-08-26T06:59:52.549Z,4.10
2017-08-26T07:02:20.123Z,4.03
2017-08-26T07:04:47.681Z,4.10
2017-08-26T07:07:15.286Z,4.47
2017-08-26T07:09:42.849Z,3.63
2017-08-26T07:12:10.429Z,4.10
2017-08-26T07:14:37.982Z,4.60
2017-08-26T07:17:05.537Z,4.07
2017-08-26T07:19:33.066Z,3.60
2017-08-26T07:22:00.610Z,3.83
2017-08-26T07:24:28.146Z,4.47
2017-08-26T07:26:55.752Z,4.00
2017-08-26T07:29:23.263Z,5.40
2017-08-26T07:31:50.893Z,3.60
2017-08-26T07:34:18.471Z,3.70
2017-08-26T07:36:46.032Z,4.13
2017-08-26T07:39:13.645Z,4.83
2017-08-26T07:41:41.153Z,4.27
2017-08-26T07:44:08.716Z,3.93
2017-08-26T07:46:36.248Z,3.57
2017-08-26T07:49:03.798Z,3.33
2017-08-26T07:51:31.333Z,3.87
2017-08-26T07:53:58.839Z,4.20
2017-08-26T07:56:26.375Z,4.70
2017-08-26T07:58:53.921Z,4.40
2017-08-26T08:01:21.462Z,3.87
2017-08-26T08:03:49.065Z,4.00
2017-08-26T08:06:16.584Z,4.43
2017-08-26T08:08:44.225Z,3.97
2017-08-26T08:11:11.730Z,4.13
2017-08-26T08:13:39.305Z,4.13
2017-08-26T08:16:06.818Z,3.70
2017-08-26T08:18:34.320Z,3.40
2017-08-26T08:21:01.872Z,4.60
2017-08-26T08:23:29.382Z,3.83
2017-08-26T08:25:56.934Z,4.20
2017-08-26T08:28:24.489Z,4.30
2017-08-26T08:30:52.110Z,5.00
2017-08-26T08:33:19.662Z,4.80
2017-08-26T08:35:47.173Z,4.30
2017-08-26T08:38:14.723Z,4.40
2017-08-26T08:40:42.273Z,4.00
2017-08-26T08:43:09.831Z,3.70
2017-08-26T08:45:37.361Z,3.60
2017-08-26T08:48:04.865Z,4.30
2017-08-26T08:50:32.465Z,4.07
2017-08-26T08:52:59.971Z,4.40
2017-08-26T08:55:27.521Z,4.80
2017-08-26T08:57:55.049Z,3.50
2017-08-26T09:00:22.603Z,4.17
2017-08-26T09:02:50.191Z,4.67
2017-08-26T09:05:17.697Z,4.40
2017-08-26T09:07:45.226Z,4.47
2017-08-26T09:10:12.777Z,4.23
2017-08-26T09:12:40.353Z,4.40
2017-08-26T09:15:07.867Z,3.80
2017-08-26T09:17:35.398Z,4.50
2017-08-26T09:20:03.049Z,3.83
2017-08-26T09:22:30.597Z,4.50
2017-08-26T09:24:58.149Z,3.90
2017-08-26T09:27:25.743Z,4.40
2017-08-26T09:29:53.293Z,3.50
2017-08-26T09:32:20.834Z,4.47
2017-08-26T09:34:48.449Z,3.97
2017-08-26T09:37:16.056Z,4.43
2017-08-26T09:39:43.571Z,4.23
2017-08-26T09:42:11.097Z,3.97
2017-08-26T09:44:38.680Z,4.83
2017-08-26T09:47:06.246Z,4.40
2017-08-26T09:49:33.756Z,4.33
2017-08-26T09:52:01.254Z,4.27
2017-08-26T09:54:28.814Z,4.37
2017-08-26T09:56:56.356Z,4.40
2017-08-26T09:59:23.939Z,4.17
2017-08-26T10:01:51.597Z,4.20
2017-08-26T10:04:19.242Z,3.43
2017-08-26T10:06:46.805Z,4.90
2017-08-26T10:09:14.369Z,4.83
2017-08-26T10:11:41.940Z,3.80
2017-08-26T10:14:09.509Z,4.73
2017-08-26T10:16:37.025Z,4.30
2017-08-26T10:19:04.533Z,4.43
2017-08-26T10:21:32.079Z,4.57
2017-08-26T10:23:59.591Z,4.43
2017-08-26T10:26:27.150Z,4.40
2017-08-26T10:28:54.730Z,4.20
2017-08-26T10:31:22.342Z,4.37
2017-08-26T10:33:49.936Z,3.80
2017-08-26T10:36:17.495Z,4.40
2017-08-26T10:38:45.073Z,4.10
2017-08-26T10:41:12.628Z,4.60
2017-08-26T10:43:40.190Z,4.30
2017-08-26T10:46:07.732Z,4.73
2017-08-26T10:48:35.294Z,4.27
2017-08-26T10:51:02.822Z,4.63
2017-08-26T10:53:30.383Z,4.80
2017-08-26T10:55:57.885Z,4.50
2017-08-26T10:58:25.569Z,4.40
2017-08-26T11:00:53.210Z,4.10
2017-08-26T11:03:20.786Z,3.60
2017-08-26T11:05:48.372Z,3.30
2017-08-26T11:08:15.946Z,4.10
2017-08-26T11:10:43.474Z,4.17
2017-08-26T11:13:10.980Z,4.30
2017-08-26T11:15:38.553Z,3.37
2017-08-26T11:18:06.125Z,3.83
2017-08-26T11:20:33.685Z,4.40
2017-08-26T11:23:01.207Z,4.47
2017-08-26T11:25:28.758Z,4.03
2017-08-26T11:27:56.332Z,4.00
2017-08-26T11:30:23.930Z,4.07
2017-08-26T11:32:51.501Z,4.10
2017-08-26T11:35:19.109Z,4.40
2017-08-26T11:37:46.686Z,4.40
2017-08-26T11:40:14.267Z,5.10
2017-08-26T11:42:41.809Z,4.60
2017-08-26T11:45:09.371Z,4.13
2017-08-26T11:47:36.916Z,4.90
2017-08-26T11:50:04.580Z,5.10
2017-08-26T11:52:32.099Z,4.73
2017-08-26T11:54:59.665Z,4.50
2017-08-26T11:57:27.189Z,3.97
2017-08-26T11:59:54.719Z,4.73
2017-08-26T12:02:22.374Z,4.33
2017-08-26T12:04:49.913Z,4.33
2017-08-26T12:07:18.137Z,5.10
2017-08-26T12:09:45.739Z,4.30
2017-08-26T12:12:13.287Z,4.10
2017-08-26T12:14:40.861Z,5.00
2017-08-26T12:17:08.412Z,4.53
2017-08-26T12:19:35.988Z,5.07
2017-08-26T12:22:03.559Z,4.57
2017-08-26T12:24:31.146Z,4.33
2017-08-26T12:26:58.713Z,4.83
2017-08-26T12:29:26.239Z,5.10
2017-08-26T12:31:54.273Z,4.30
2017-08-26T12:34:22.057Z,4.97
2017-08-26T12:36:49.641Z,3.80
2017-08-26T12:39:17.184Z,3.83
2017-08-26T12:41:44.830Z,4.50
2017-08-26T12:44:12.454Z,4.87
2017-08-26T12:46:40.023Z,4.10
2017-08-26T12:49:07.540Z,9.77
2017-08-26T12:51:35.060Z,10.23
2017-08-26T12:54:02.622Z,4.43
2017-08-26T12:56:30.131Z,4.57
2017-08-26T12:58:57.648Z,7.47
2017-08-26T13:01:25.557Z,5.30
2017-08-26T13:03:53.065Z,5.60
2017-08-26T13:06:20.624Z,6.93
2017-08-26T13:08:48.173Z,6.97
2017-08-26T13:11:15.684Z,6.30
2017-08-26T13:13:43.270Z,6.83
2017-08-26T13:16:10.854Z,6.87
2017-08-26T13:18:38.370Z,5.57
2017-08-26T13:21:05.878Z,6.13
2017-08-26T13:23:33.541Z,5.23
2017-08-26T13:26:01.722Z,6.97
2017-08-26T13:28:29.238Z,5.90
2017-08-26T13:30:56.742Z,4.70
2017-08-26T13:33:24.313Z,6.40
2017-08-26T13:35:51.869Z,6.00
2017-08-26T13:38:19.643Z,6.33
2017-08-26T13:40:47.177Z,5.60
2017-08-26T13:43:15.033Z,6.57
2017-08-26T13:45:42.914Z,6.63
2017-08-26T13:48:10.428Z,6.27
2017-08-26T13:50:37.974Z,7.00
2017-08-26T13:53:05.561Z,6.10
2017-08-26T13:55:33.130Z,5.73
2017-08-26T13:58:11.423Z,5.70
2017-08-26T14:00:40.779Z,5.87
2017-08-26T14:03:08.346Z,5.40
2017-08-26T14:05:35.853Z,5.80
2017-08-26T14:08:03.445Z,5.70
2017-08-26T14:10:30.980Z,5.77
2017-08-26T14:12:58.493Z,5.57
2017-08-26T14:15:26.127Z,6.57
2017-08-26T14:17:53.817Z,5.20
